Industrial, Minnesota
Current Conditions -  °F | °C
As of 1:55 PM on Monday 24 Nov 2014 (Local Time) from KDLH Reporting Station
Light Snow Light Snow  
Wind Chill:   Ceiling: 1100
Heat Index: 21°   Visibility: 4mi
Dew Point: 16°   Wind: 24mph
Humidity: 81%   Direction: 330°NNW
Pressure: 29.39"   Gusts: 36mph
Location:  46.8859°N, 92.4258°W
Report Text: KDLH 241955Z 33021G31KT 4SM -SN BLSN OVC011 M06/M09 A2939 RMK AO2 PK WND 33035/1905 SLP972 P0000 T10611089
Loading
Personal Weather Stations






























Interactive Weather Map New forecast layout! Learn more

10-Day Weather Forecast

Advertisements
Track Severe Weather on mobile